地図

経路データ

SID SEASON NUMBER BASIN SUBBASIN NAME ISO_TIME NATURE LAT LON WMO_WIND WMO_PRES WMO_AGENCY TRACK_TYPE DIST2LAND LANDFALL IFLAG USA_AGENCY USA_ATCF_ID USA_LAT USA_LON USA_RECORD USA_STATUS USA_WIND USA_PRES USA_SSHS USA_R34_NE USA_R34_SE USA_R34_SW USA_R34_NW USA_R50_NE USA_R50_SE USA_R50_SW USA_R50_NW USA_R64_NE USA_R64_SE USA_R64_SW USA_R64_NW USA_POCI USA_ROCI USA_RMW USA_EYE TOKYO_LAT TOKYO_LON TOKYO_GRADE TOKYO_WIND TOKYO_PRES TOKYO_R50_DIR TOKYO_R50_LONG TOKYO_R50_SHORT TOKYO_R30_DIR TOKYO_R30_LONG TOKYO_R30_SHORT TOKYO_LAND CMA_LAT CMA_LON CMA_CAT CMA_WIND CMA_PRES HKO_LAT HKO_LON HKO_CAT HKO_WIND HKO_PRES NEWDELHI_LAT NEWDELHI_LON NEWDELHI_GRADE NEWDELHI_WIND NEWDELHI_PRES NEWDELHI_CI NEWDELHI_DP NEWDELHI_POCI REUNION_LAT REUNION_LON REUNION_TYPE REUNION_WIND REUNION_PRES REUNION_TNUM REUNION_CI REUNION_RMW REUNION_R34_NE REUNION_R34_SE REUNION_R34_SW REUNION_R34_NW REUNION_R50_NE REUNION_R50_SE REUNION_R50_SW REUNION_R50_NW REUNION_R64_NE REUNION_R64_SE REUNION_R64_SW REUNION_R64_NW BOM_LAT BOM_LON BOM_TYPE BOM_WIND BOM_PRES BOM_TNUM BOM_CI BOM_RMW BOM_R34_NE BOM_R34_SE BOM_R34_SW BOM_R34_NW BOM_R50_NE BOM_R50_SE BOM_R50_SW BOM_R50_NW BOM_R64_NE BOM_R64_SE BOM_R64_SW BOM_R64_NW BOM_ROCI BOM_POCI BOM_EYE BOM_POS_METHOD BOM_PRES_METHOD NADI_LAT NADI_LON NADI_CAT NADI_WIND NADI_PRES WELLINGTON_LAT WELLINGTON_LON WELLINGTON_WIND WELLINGTON_PRES DS824_LAT DS824_LON DS824_STAGE DS824_WIND DS824_PRES TD9636_LAT TD9636_LON TD9636_STAGE TD9636_WIND TD9636_PRES TD9635_LAT TD9635_LON TD9635_WIND TD9635_PRES TD9635_ROCI NEUMANN_LAT NEUMANN_LON NEUMANN_CLASS NEUMANN_WIND NEUMANN_PRES MLC_LAT MLC_LON MLC_CLASS MLC_WIND MLC_PRES USA_GUST BOM_GUST BOM_GUST_PER REUNION_GUST REUNION_GUST_PER USA_SEAHGT USA_SEARAD_NE USA_SEARAD_SE USA_SEARAD_SW USA_SEARAD_NW STORM_SPEED STORM_DIR
1966254N17160 1966 78 WP MM FLOSSIE:GRACE 1966-09-10 18:00:00 TS 16.6000 160.000 main 2382 2377 __O___________ -1 16.6000 160.000 0 1008 31 295
1966254N17160 1966 78 WP MM FLOSSIE:GRACE 1966-09-10 21:00:00 TS 17.2508 158.558 main 2394 2383 __P___________ -1 17.2508 158.558 0 1007 27 294
1966254N17160 1966 78 WP MM FLOSSIE:GRACE 1966-09-11 00:00:00 TS 17.7000 157.400 main 2393 2382 __O___________ -1 17.7000 157.400 0 1006 19 289
1966254N17160 1966 78 WP MM FLOSSIE:GRACE 1966-09-11 03:00:00 TS 17.8433 156.708 main 2382 2379 __P___________ -1 17.8433 156.708 0 1005 12 280
1966254N17160 1966 78 WP MM FLOSSIE:GRACE 1966-09-11 06:00:00 TS 17.9000 156.200 main 2379 2376 __O___________ -1 17.9000 156.200 0 1005 12 284
1966254N17160 1966 78 WP MM FLOSSIE:GRACE 1966-09-11 09:00:00 TS 18.1349 155.515 main 2383 2351 __P___________ -1 18.1349 155.515 0 1004 14 291
1966254N17160 1966 78 WP MM FLOSSIE:GRACE 1966-09-11 12:00:00 TS 18.4000 154.800 main 2351 2292 __O___________ -1 18.4000 154.800 0 1004 14 289
1966254N17160 1966 78 WP MM FLOSSIE:GRACE 1966-09-11 15:00:00 TS 18.6073 154.092 main 2292 2233 __P___________ -1 18.6073 154.092 0 1004 14 287
1966254N17160 1966 78 WP MM FLOSSIE:GRACE 1966-09-11 18:00:00 TS 18.8000 153.400 main 2233 2175 __O___________ -1 18.8000 153.400 0 1004 14 286
1966254N17160 1966 78 WP MM FLOSSIE:GRACE 1966-09-11 21:00:00 TS 18.9928 152.668 main 2175 2124 __P___________ -1 18.9928 152.668 0 1004 13 288
1966254N17160 1966 78 WP MM FLOSSIE:GRACE 1966-09-12 00:00:00 TS 19.2000 152.100 main 2124 2094 __O___________ -1 19.2000 152.100 0 1004 9 301
1966254N17160 1966 78 WP MM FLOSSIE:GRACE 1966-09-12 03:00:00 TS 19.4421 151.882 main 2094 2059 __P___________ -1 19.4421 151.882 0 1004 6 330
1966254N17160 1966 78 WP MM FLOSSIE:GRACE 1966-09-12 06:00:00 TS 19.7000 151.800 main 2059 2030 __O___________ -1 19.7000 151.800 0 1004 6 332
1966254N17160 1966 78 WP MM FLOSSIE:GRACE 1966-09-12 09:00:00 TS 19.9425 151.600 main 2030 1990 __P___________ -1 19.9425 151.600 0 1004 6 323
1966254N17160 1966 78 WP MM FLOSSIE:GRACE 1966-09-12 12:00:00 TS 20.2000 151.400 main 1990 1951 __O___________ -1 20.2000 151.400 0 1004 6 327
1966254N17160 1966 78 WP MM FLOSSIE:GRACE 1966-09-12 15:00:00 TS 20.4850 151.228 main 1951 1916 __P___________ -1 20.4850 151.228 0 1004 7 335
1966254N17160 1966 78 WP MM FLOSSIE:GRACE 1966-09-12 18:00:00 TS 20.8000 151.100 main 1916 1882 __O___________ -1 20.8000 151.100 0 1004 7 345
1966254N17160 1966 78 WP MM FLOSSIE:GRACE 1966-09-12 21:00:00 TS 21.1575 151.035 main 1873 1844 __P___________ -1 21.1575 151.035 0 1004 7 352
1966254N17160 1966 78 WP MM FLOSSIE:GRACE 1966-09-13 00:00:00 TS 21.5000 151.000 1004 tokyo main 1844 1825 _OO___________ -1 21.5000 151.000 2 1004 0 0 0 21.5000 151.000 0 1004 6 353
1966254N17160 1966 78 WP MM FLOSSIE:GRACE 1966-09-13 03:00:00 TS 21.7542 150.951 main 1816 1791 _PP___________ -1 21.7475 150.953 2 1002 0 0 21.7575 150.950 0 1002 5 349
1966254N17160 1966 78 WP MM FLOSSIE:GRACE 1966-09-13 06:00:00 TS 22.0000 150.900 1000 tokyo main 1791 1757 _OO___________ -1 22.0000 150.900 2 1000 0 0 0 22.0000 150.900 1 29 1000 5 350
1966254N17160 1966 78 WP MM FLOSSIE:GRACE 1966-09-13 09:00:00 TS 22.2738 150.843 main 1757 1729 _PP___________ -1 22.2700 150.843 2 999 0 0 22.2775 150.843 1 29 999 6 352
1966254N17160 1966 78 WP MM FLOSSIE:GRACE 1966-09-13 12:00:00 TS 22.6000 150.800 998 tokyo main 1729 1692 _OO___________ -1 22.6000 150.800 2 998 0 0 0 22.6000 150.800 1 29 998 8 357
1966254N17160 1966 78 WP MM FLOSSIE:GRACE 1966-09-13 15:00:00 TS 23.0212 150.800 main 1692 1655 _PP___________ -1 23.0500 150.800 2 996 0 0 22.9925 150.800 1 29 996 9 2
1966254N17160 1966 78 WP MM FLOSSIE:GRACE 1966-09-13 18:00:00 TS 23.4500 150.800 994 tokyo main 1646 1619 _OO___________ -1 23.5000 150.800 2 994 0 0 0 23.4000 150.800 1 29 994 8 357
1966254N17160 1966 78 WP MM FLOSSIE:GRACE 1966-09-13 21:00:00 TS 23.7750 150.758 main 1619 1586 _PP___________ -1 23.8075 150.758 2 992 0 0 23.7425 150.758 1 33 992 7 352
1966254N17160 1966 78 WP MM FLOSSIE:GRACE 1966-09-14 00:00:00 TS 24.1000 150.700 990 tokyo main 1586 1550 _OO___________ -1 24.1000 150.700 9 990 0 0 0 24.1000 150.700 2 38 990 7 353
1966254N17160 1966 78 WP MM FLOSSIE:GRACE 1966-09-14 03:00:00 TS 24.5100 150.650 main 1550 1508 _PP___________ -1 24.4775 150.650 9 988 0 0 24.5425 150.650 2 48 989 9 354
1966254N17160 1966 78 WP MM FLOSSIE:GRACE 1966-09-14 06:00:00 TS 24.9500 150.600 986 tokyo main 1499 1467 _OO___________ -1 24.9000 150.600 9 986 0 0 0 25.0000 150.600 3 58 988 9 353
1966254N17160 1966 78 WP MM FLOSSIE:GRACE 1966-09-14 09:00:00 TS 25.3600 150.535 main 1458 1432 _PP___________ -1 25.3350 150.535 9 984 0 0 25.3850 150.535 3 58 986 8 353
1966254N17160 1966 78 WP MM FLOSSIE:GRACE 1966-09-14 12:00:00 TS 25.7308 150.492 982 tokyo main 1432 1390 OOOO_____OOO__ jtwc_wp WP211966 25.7000 150.500 30 -1 25.8000 150.500 9 982 0 0 0 25.8000 150.500 3 58 985 25.3000 150.400 STS 50 985 25.7000 150.500 TC 30 25.7000 150.500 1 30 25.7000 150.500 30 992 180 8 358
1966254N17160 1966 78 WP MM FLOSSIE:GRACE 1966-09-14 15:00:00 TS 26.2007 150.514 main 1390 1355 PPPP_____PPP__ WP211966 26.1775 150.583 40 0 26.2774 150.505 9 982 0 0 26.3120 150.446 3 58 983 25.8725 150.358 STS 50 985 26.1775 150.583 TC 40 26.2227 150.616 1 37 26.1775 150.583 40 988 180 10 7
1966254N17160 1966 78 WP MM FLOSSIE:GRACE 1966-09-14 18:00:00 TS 26.7334 150.632 982 tokyo main 1355 1321 OOOO_____OPO__ jtwc_wp WP211966 26.7000 150.700 50 0 26.8000 150.600 9 982 0 0 0 26.9000 150.600 3 58 982 26.5000 150.400 STS 50 985 26.7000 150.700 TC 50 26.7563 150.747 1 45 26.7000 150.700 50 985 180 12 16
1966254N17160 1966 78 WP MM FLOSSIE:GRACE 1966-09-14 21:00:00 TS 27.3408 150.877 main 1328 1295 PPPP_____PPP__ WP211966 27.2925 150.878 55 0 27.4149 150.797 9 981 0 0 27.5737 151.218 3 58 980 27.2074 150.590 STS 50 982 27.2925 150.878 TC 55 27.3118 150.903 1 52 27.2925 150.878 55 982 150 13 22
1966254N17160 1966 78 WP MM FLOSSIE:GRACE 1966-09-15 00:00:00 TS 27.9571 151.186 980 tokyo main 1295 1278 OOOO_____OOO__ jtwc_wp WP211966 27.9000 151.100 60 0 28.0000 151.100 9 980 0 0 0 28.2000 151.900 3 58 978 27.9000 150.900 STS 50 980 27.9000 151.100 TC 60 27.9000 151.100 2 60 27.9000 151.100 60 979 120 12 24
1966254N17160 1966 78 WP MM FLOSSIE:GRACE 1966-09-15 03:00:00 TS 28.4583 151.450 main 1278 1263 PPPP_____PPP__ WP211966 28.4121 151.292 60 0 28.3848 151.456 9 980 0 0 28.5994 152.204 3 58 977 28.4574 151.263 STS 50 980 28.4121 151.292 TC 60 28.5303 151.354 2 60 28.4121 151.292 60 975 180 12 27
1966254N17160 1966 78 WP MM FLOSSIE:GRACE 1966-09-15 06:00:00 TS 29.0009 151.785 980 tokyo main 1264 1246 OOOO_____OPO__ jtwc_wp WP211966 29.0000 151.600 60 0 28.8000 151.900 9 980 0 0 0 29.0000 152.400 3 58 976 29.0000 151.700 STS 50 980 29.0000 151.600 TC 60 29.2060 151.697 2 60 29.0000 151.600 60 972 240 14 29
1966254N17160 1966 78 WP MM FLOSSIE:GRACE 1966-09-15 09:00:00 TS 29.7032 152.223 main 1248 1243 PPPP_____PPP__ WP211966 29.7970 152.096 60 0 29.4240 152.362 9 979 0 0 29.5738 152.591 3 58 975 29.6046 152.156 STS 52 979 29.7970 152.096 TC 60 29.9288 152.166 2 60 29.7970 152.096 60 972 210 18 31
1966254N17160 1966 78 WP MM FLOSSIE:GRACE 1966-09-15 12:00:00 TS 30.5143 152.843 978 tokyo main 1247 1247 OOOO_____OOO__ jtwc_wp WP211966 30.7000 152.800 60 0 30.2000 153.000 9 978 0 0 0 30.3000 153.000 3 58 975 30.3000 152.700 STS 55 978 30.7000 152.800 TC 60 30.7000 152.800 2 60 30.7000 152.800 60 973 180 21 37
1966254N17160 1966 78 WP MM FLOSSIE:GRACE 1966-09-15 15:00:00 TS 31.3825 153.686 main 1275 1275 PPPP_____PPP__ WP211966 31.6073 153.675 57 0 31.0558 153.940 9 977 0 0 31.1563 153.901 3 58 974 31.1116 153.319 STS 55 978 31.6073 153.675 TC 57 31.5320 153.614 2 58 31.6073 153.675 57 975 180 24 42
1966254N17160 1966 78 WP MM FLOSSIE:GRACE 1966-09-15 18:00:00 TS 32.2858 154.686 976 tokyo main 1323 1323 OOOO_____OPO__ jtwc_wp WP211966 32.5000 154.700 55 0 32.0000 155.000 9 976 0 0 0 32.1000 155.000 3 58 973 32.0000 154.100 STS 55 978 32.5000 154.700 TC 55 32.4006 154.600 2 57 32.5000 154.700 55 978 180 25 43
1966254N17160 1966 78 WP MM FLOSSIE:GRACE 1966-09-15 21:00:00 TS 33.1756 155.689 main 1381 1381 PPPP_____PPP__ WP211966 33.3290 155.757 55 0 33.0124 155.893 9 975 0 0 33.0623 155.893 3 67 972 32.8991 155.054 STS 57 976 33.3290 155.757 TC 55 33.2685 155.713 2 56 33.3290 155.757 55 980 150 25 45
1966254N17160 1966 78 WP MM FLOSSIE:GRACE 1966-09-16 00:00:00 TS 34.0286 156.800 975 tokyo main 1414 1390 OOOO_____OOO__ jtwc_wp WP211966 34.1000 156.900 55 0 34.0000 156.900 9 975 0 0 0 34.0000 156.900 4 77 972 33.8000 156.200 STS 60 975 34.1000 156.900 TC 55 34.1000 156.900 2 55 34.1000 156.900 55 983 120 25 50
1966254N17160 1966 78 WP MM FLOSSIE:GRACE 1966-09-16 03:00:00 TS 34.8086 158.047 main 1390 1377 PPPP_____PPP__ WP211966 34.8144 158.130 52 0 34.8446 158.212 9 973 0 0 34.8372 158.212 4 77 972 34.6699 157.441 STS 60 975 34.8144 158.130 TC 52 34.8653 158.073 2 53 34.8144 158.130 52 985 120 26 55
1966254N17160 1966 78 WP MM FLOSSIE:GRACE 1966-09-16 06:00:00 TS 35.5410 159.401 972 tokyo main 1387 1378 OOOO_____OPO__ jtwc_wp WP211966 35.5000 159.400 50 0 35.6000 159.700 9 972 0 0 0 35.6000 159.700 4 77 972 35.5000 158.900 STS 60 975 35.5000 159.400 TC 50 35.5867 159.308 2 52 35.5000 159.400 50 988 120 27 57
1966254N17160 1966 78 WP MM FLOSSIE:GRACE 1966-09-16 09:00:00 TS 36.2604 160.812 main 1387 1387 PPPP_____PPP__ WP211966 36.2060 160.645 50 0 36.3285 161.222 9 972 0 0 36.3285 161.222 4 77 972 36.2834 160.714 STS 60 977 36.2060 160.645 TC 50 36.2646 160.589 2 51 36.2060 160.645 50 990 120 27 59
1966254N17160 1966 78 WP MM FLOSSIE:GRACE 1966-09-16 12:00:00 TS 36.9429 162.243 972 tokyo main 1411 1409 OOOO_____OOO__ jtwc_wp WP211966 36.9000 161.900 50 0 37.0000 162.800 9 972 0 0 0 37.0000 162.800 4 77 972 37.0000 162.500 STS 60 980 36.9000 161.900 TC 50 36.9000 161.900 2 50 36.9000 161.900 50 992 120 26 59
1966254N17160 1966 78 WP MM FLOSSIE:GRACE 1966-09-16 15:00:00 TS 37.5778 163.586 main 1438 1438 PPPP_____PPP__ WP211966 37.5858 163.179 47 0 37.5639 164.305 9 973 0 0 37.5639 164.305 4 67 973 37.6639 163.728 STS 50 980 37.5858 163.179 TC 47 37.4954 163.227 2 47 37.5858 163.179 47 993 90 26 61
1966254N17160 1966 78 WP MM FLOSSIE:GRACE 1966-09-16 18:00:00 MX 38.1943 165.096 975 tokyo main 1489 1489 OOOO_____OPO__ jtwc_wp WP211966 38.2000 164.500 45 0 38.2000 166.000 9 975 0 0 0 38.2000 166.000 9 58 975 38.3000 165.000 TS 40 980 38.2000 164.500 TC 45 38.0565 164.568 2 45 38.2000 164.500 45 995 60 30 64
1966254N17160 1966 78 WP MM FLOSSIE:GRACE 1966-09-16 21:00:00 MX 38.8938 166.996 main 1527 1527 PPPP_____PPP__ WP211966 38.6911 165.880 42 0 39.1159 168.146 9 977 0 0 39.1159 168.146 9 58 977 38.9181 166.812 TS 40 980 38.6911 165.880 TC 42 38.5894 165.925 2 42 38.6911 165.880 42 996 60 37 66
1966254N17160 1966 78 WP MM FLOSSIE:GRACE 1966-09-17 00:00:00 MX 39.6846 169.400 980 tokyo main 1570 1570 OOOO_____OOO__ jtwc_wp WP211966 39.1000 167.300 40 0 40.0000 170.500 9 980 0 0 0 40.0000 170.500 9 58 980 39.5000 169.000 TS 40 980 39.1000 167.300 TC 40 39.1000 167.300 2 40 39.1000 167.300 40 998 60 47 68
1966254N17160 1966 78 WP MM FLOSSIE:GRACE 1966-09-17 03:00:00 ET 40.6280 172.714 main 1662 1662 _PP___________ WP211966 -1 40.6280 172.714 9 982 0 0 40.6280 172.714 9 53 982 TS TC 2 44 73
1966254N17160 1966 78 WP MM FLOSSIE:GRACE 1966-09-17 06:00:00 ET 41.0000 175.000 985 tokyo main 1744 1677 _OO___________ -1 41.0000 175.000 9 985 0 0 0 41.0000 175.000 9 48 985 2 36 84
1966254N17160 1966 78 WP MM FLOSSIE:GRACE 1966-09-17 09:00:00 ET 41.0290 177.471 main 1668 1565 _PP___________ -1 40.9970 177.479 9 985 0 0 41.0930 177.453 9 48 985 2 38 90
1966254N17160 1966 78 EP CP FLOSSIE:GRACE 1966-09-17 12:00:00 ET 41.0000 180.000 985 tokyo main 1561 1432 _OO___________ -1 41.0000 180.000 9 985 0 0 0 41.0000 180.000 9 48 985 38 85
1966254N17160 1966 78 EP CP FLOSSIE:GRACE 1966-09-17 15:00:00 NR 41.3846 182.492 main 1429 1295 _P____________ -1 41.3846 -177.508 9 985 0 0 9 39 75
1966254N17160 1966 78 EP CP FLOSSIE:GRACE 1966-09-17 18:00:00 ET 42.0000 185.000 main 1292 _O____________ -1 42.0000 185.000 6 985 0 0 0 39 72

デジタル台風データ・検索

IBTrACS Databaseについて

本データベースは、米国NOAAが公開する1842年以降の世界の熱帯低気圧のベストトラックデータアーカイブInternational Best Track Archive for Climate Stewardship (IBTrACS)を、ウェブで閲覧しやすい形式に変換したものです。

最終更新日:2021-12-03